Time;durP1;ratioP1;P1;durP2;ratioP2;P2;SDS_P1;SDS_P2;PMS_P1;PMS_P2;Temp;Humidity;BMP_temperature;BMP_pressure;BME280_temperature;BME280_humidity;BME280_pressure;Samples;Min_cycle;Max_cycle;Signal;HPM_P1;HPM_P2
2021/07/31 00:04:38;;;;;;;5.8;2.9;;;;;;;16.7;62.6;100290;;;;
2021/07/31 00:12:38;;;;;;;5.8;2.9;;;;;;;16.8;62.5;100300;;;;
2021/07/31 00:14:39;;;;;;;5.8;2.9;;;;;;;16.7;62.9;100290;;;;
2021/07/31 00:16:38;;;;;;;5.8;2.9;;;;;;;16.8;62.1;100290;;;;
2021/07/31 00:18:38;;;;;;;5.8;2.9;;;;;;;16.7;63.0;100290;;;;
2021/07/31 00:20:38;;;;;;;8.9;2.8;;;;;;;16.8;62.3;100290;;;;
2021/07/31 00:22:38;;;;;;;8.9;2.8;;;;;;;16.7;63.0;100300;;;;
2021/07/31 00:24:38;;;;;;;8.9;2.8;;;;;;;16.8;62.9;100300;;;;
2021/07/31 00:34:38;;;;;;;8.9;2.8;;;;;;;16.9;63.2;100300;;;;
2021/07/31 00:38:38;;;;;;;8.9;2.8;;;;;;;16.8;63.6;100290;;;;
2021/07/31 00:40:38;;;;;;;6.7;3.3;;;;;;;16.7;63.5;100290;;;;
2021/07/31 00:42:38;;;;;;;6.7;3.3;;;;;;;16.8;63.9;100290;;;;
2021/07/31 00:46:38;;;;;;;6.7;3.3;;;;;;;16.6;64.4;100290;;;;
2021/07/31 00:50:38;;;;;;;6.7;3.3;;;;;;;16.8;63.6;100290;;;;
2021/07/31 00:52:38;;;;;;;6.7;3.3;;;;;;;16.9;63.4;100290;;;;
2021/07/31 00:54:38;;;;;;;6.7;3.3;;;;;;;16.8;63.4;100300;;;;
2021/07/31 00:56:38;;;;;;;6.7;3.3;;;;;;;16.9;63.3;100290;;;;
2021/07/31 00:58:38;;;;;;;6.7;3.3;;;;;;;17.0;63.3;100290;;;;
2021/07/31 01:00:39;;;;;;;11.4;3.6;;;;;;;16.9;63.4;100290;;;;
2021/07/31 01:08:38;;;;;;;11.4;3.6;;;;;;;17.0;63.0;100290;;;;
2021/07/31 01:16:38;;;;;;;11.4;3.6;;;;;;;16.9;63.8;100290;;;;
2021/07/31 01:24:38;;;;;;;9.3;3.6;;;;;;;16.8;64.4;100280;;;;
2021/07/31 01:34:38;;;;;;;9.3;3.6;;;;;;;16.7;64.3;100280;;;;
2021/07/31 01:36:38;;;;;;;9.3;3.6;;;;;;;16.8;63.9;100280;;;;
2021/07/31 01:42:38;;;;;;;5.4;3.3;;;;;;;16.9;63.7;100290;;;;
2021/07/31 01:44:38;;;;;;;5.4;3.3;;;;;;;16.8;64.1;100290;;;;
2021/07/31 01:46:38;;;;;;;5.4;3.3;;;;;;;16.9;63.1;100290;;;;
2021/07/31 01:56:38;;;;;;;5.4;3.3;;;;;;;16.8;63.6;100280;;;;
2021/07/31 01:58:38;;;;;;;5.4;3.3;;;;;;;16.9;63.3;100280;;;;
2021/07/31 02:00:39;;;;;;;7.7;3.6;;;;;;;17.0;63.0;100280;;;;
2021/07/31 02:02:38;;;;;;;7.7;3.6;;;;;;;16.9;63.1;100280;;;;
2021/07/31 02:06:38;;;;;;;7.7;3.6;;;;;;;17.0;63.2;100280;;;;
2021/07/31 02:10:38;;;;;;;7.7;3.6;;;;;;;16.8;63.6;100270;;;;
2021/07/31 02:14:38;;;;;;;7.7;3.6;;;;;;;16.9;63.3;100280;;;;
2021/07/31 02:16:38;;;;;;;7.7;3.6;;;;;;;17.0;63.4;100280;;;;
2021/07/31 02:18:38;;;;;;;7.7;3.6;;;;;;;16.9;63.8;100280;;;;
2021/07/31 02:20:38;;;;;;;8.2;3.5;;;;;;;16.8;63.6;100280;;;;
2021/07/31 02:26:38;;;;;;;8.2;3.5;;;;;;;16.7;64.5;100270;;;;
2021/07/31 02:28:38;;;;;;;8.2;3.5;;;;;;;16.6;64.8;100270;;;;
2021/07/31 02:30:38;;;;;;;8.2;3.5;;;;;;;16.7;64.6;100270;;;;
2021/07/31 02:34:38;;;;;;;8.2;3.5;;;;;;;16.8;64.6;100280;;;;
2021/07/31 02:42:38;;;;;;;8.4;4.0;;;;;;;16.9;64.2;100270;;;;
2021/07/31 02:44:38;;;;;;;8.4;4.0;;;;;;;16.8;64.3;100270;;;;
2021/07/31 02:46:38;;;;;;;8.4;4.0;;;;;;;16.6;65.0;100270;;;;
2021/07/31 02:48:38;;;;;;;8.4;4.0;;;;;;;16.7;64.8;100270;;;;
2021/07/31 02:50:38;;;;;;;8.4;4.0;;;;;;;16.6;65.1;100270;;;;
2021/07/31 02:52:38;;;;;;;8.4;4.0;;;;;;;16.7;64.7;100270;;;;
2021/07/31 02:54:38;;;;;;;8.4;4.0;;;;;;;16.6;64.6;100270;;;;
2021/07/31 02:58:38;;;;;;;8.4;4.0;;;;;;;16.7;64.7;100270;;;;
2021/07/31 03:00:38;;;;;;;7.9;4.1;;;;;;;16.9;64.1;100270;;;;
2021/07/31 03:02:39;;;;;;;7.9;4.1;;;;;;;16.8;63.8;100260;;;;
2021/07/31 03:06:38;;;;;;;7.9;4.1;;;;;;;16.7;64.8;100270;;;;
2021/07/31 03:08:38;;;;;;;7.9;4.1;;;;;;;16.8;64.6;100260;;;;
2021/07/31 03:10:38;;;;;;;7.9;4.1;;;;;;;16.7;64.5;100260;;;;
2021/07/31 03:12:38;;;;;;;7.9;4.1;;;;;;;16.6;65.0;100250;;;;
2021/07/31 03:16:38;;;;;;;7.9;4.1;;;;;;;16.7;64.6;100260;;;;
2021/07/31 03:18:38;;;;;;;7.9;4.1;;;;;;;16.8;64.6;100250;;;;
2021/07/31 03:20:38;;;;;;;8.4;4.0;;;;;;;16.7;64.7;100250;;;;
2021/07/31 03:22:38;;;;;;;8.4;4.0;;;;;;;16.8;64.4;100260;;;;
2021/07/31 03:24:38;;;;;;;8.4;4.0;;;;;;;16.7;64.8;100260;;;;
2021/07/31 03:26:38;;;;;;;8.4;4.0;;;;;;;16.6;65.3;100260;;;;
2021/07/31 03:36:38;;;;;;;8.4;4.0;;;;;;;16.5;66.7;100260;;;;
2021/07/31 03:46:38;;;;;;;8.8;4.5;;;;;;;16.4;66.8;100270;;;;
2021/07/31 03:54:38;;;;;;;8.8;4.5;;;;;;;16.2;69.5;100290;;;;
2021/07/31 03:56:38;;;;;;;8.8;4.5;;;;;;;16.3;68.3;100300;;;;
2021/07/31 03:58:38;;;;;;;8.8;4.5;;;;;;;16.2;69.8;100300;;;;
2021/07/31 04:00:38;;;;;;;10.3;5.2;;;;;;;16.1;70.5;100300;;;;
2021/07/31 04:02:38;;;;;;;10.3;5.2;;;;;;;16.2;70.1;100310;;;;
2021/07/31 04:04:38;;;;;;;10.3;5.2;;;;;;;16.1;70.4;100310;;;;
2021/07/31 04:06:38;;;;;;;10.3;5.2;;;;;;;16.2;70.5;100300;;;;
2021/07/31 04:08:38;;;;;;;10.3;5.2;;;;;;;16.0;70.9;100310;;;;
2021/07/31 04:10:40;;;;;;;10.3;5.2;;;;;;;16.2;70.2;100310;;;;
2021/07/31 04:16:39;;;;;;;10.3;5.2;;;;;;;16.1;70.6;100310;;;;
2021/07/31 04:18:38;;;;;;;10.3;5.2;;;;;;;16.0;70.6;100310;;;;
2021/07/31 04:22:38;;;;;;;9.4;6.0;;;;;;;15.9;71.6;100310;;;;
2021/07/31 04:30:38;;;;;;;9.4;6.0;;;;;;;16.0;70.6;100310;;;;
2021/07/31 04:32:38;;;;;;;9.4;6.0;;;;;;;15.8;71.5;100320;;;;
2021/07/31 04:34:38;;;;;;;9.4;6.0;;;;;;;15.9;70.7;100320;;;;
2021/07/31 04:36:38;;;;;;;9.4;6.0;;;;;;;16.0;70.7;100320;;;;
2021/07/31 04:38:38;;;;;;;9.4;6.0;;;;;;;15.9;71.7;100320;;;;
2021/07/31 04:50:43;;;;;;;7.9;5.6;;;;;;;15.8;71.5;100340;;;;
2021/07/31 04:54:39;;;;;;;7.9;5.6;;;;;;;15.9;71.1;100340;;;;
2021/07/31 04:56:38;;;;;;;7.9;5.6;;;;;;;15.8;71.5;100340;;;;
2021/07/31 05:02:39;;;;;;;8.3;6.4;;;;;;;15.9;71.3;100360;;;;
2021/07/31 05:10:39;;;;;;;8.3;6.4;;;;;;;15.8;71.8;100360;;;;
2021/07/31 05:12:38;;;;;;;8.3;6.4;;;;;;;15.9;70.8;100360;;;;
2021/07/31 05:14:38;;;;;;;8.3;6.4;;;;;;;15.8;71.6;100360;;;;
2021/07/31 05:18:38;;;;;;;8.3;6.4;;;;;;;15.9;71.6;100360;;;;
2021/07/31 05:20:38;;;;;;;8.3;6.3;;;;;;;16.0;71.6;100360;;;;
2021/07/31 05:26:38;;;;;;;8.3;6.3;;;;;;;16.1;71.9;100370;;;;
2021/07/31 05:28:38;;;;;;;8.3;6.3;;;;;;;16.2;71.4;100370;;;;
2021/07/31 05:34:38;;;;;;;8.3;6.3;;;;;;;16.3;71.3;100370;;;;
2021/07/31 05:38:38;;;;;;;8.3;6.3;;;;;;;16.4;70.7;100370;;;;
2021/07/31 05:40:38;;;;;;;8.9;6.7;;;;;;;16.3;71.1;100370;;;;
2021/07/31 05:44:38;;;;;;;8.9;6.7;;;;;;;16.4;70.6;100370;;;;
2021/07/31 05:46:38;;;;;;;8.9;6.7;;;;;;;16.6;69.8;100370;;;;
2021/07/31 05:48:38;;;;;;;8.9;6.7;;;;;;;16.5;71.2;100380;;;;
2021/07/31 05:50:38;;;;;;;8.9;6.7;;;;;;;16.4;70.7;100380;;;;
2021/07/31 05:52:38;;;;;;;8.9;6.7;;;;;;;16.5;69.8;100380;;;;
2021/07/31 05:58:38;;;;;;;8.9;6.7;;;;;;;16.3;70.6;100390;;;;
2021/07/31 06:02:39;;;;;;;8.9;7.6;;;;;;;16.4;69.8;100390;;;;
2021/07/31 06:04:38;;;;;;;8.9;7.6;;;;;;;16.5;70.3;100390;;;;
2021/07/31 06:06:38;;;;;;;8.9;7.6;;;;;;;16.6;69.9;100390;;;;
2021/07/31 06:14:39;;;;;;;8.9;7.6;;;;;;;16.7;69.1;100400;;;;
2021/07/31 06:20:38;;;;;;;8.9;7.4;;;;;;;16.6;70.3;100410;;;;
2021/07/31 06:22:39;;;;;;;8.9;7.4;;;;;;;16.5;69.9;100410;;;;
2021/07/31 06:24:38;;;;;;;8.9;7.4;;;;;;;16.6;70.6;100400;;;;
2021/07/31 06:26:38;;;;;;;8.9;7.4;;;;;;;16.5;70.8;100400;;;;
2021/07/31 06:34:38;;;;;;;8.9;7.4;;;;;;;16.4;71.7;100420;;;;
2021/07/31 06:36:39;;;;;;;8.9;7.4;;;;;;;16.3;72.4;100420;;;;
2021/07/31 06:38:38;;;;;;;8.9;7.4;;;;;;;16.4;72.5;100420;;;;
2021/07/31 06:40:38;;;;;;;10.2;9.1;;;;;;;16.5;71.5;100420;;;;
2021/07/31 06:42:38;;;;;;;10.2;9.1;;;;;;;16.6;71.4;100420;;;;
2021/07/31 06:46:38;;;;;;;10.2;9.1;;;;;;;16.7;71.8;100420;;;;
2021/07/31 06:48:38;;;;;;;10.2;9.1;;;;;;;16.6;71.6;100430;;;;
2021/07/31 06:52:38;;;;;;;10.2;9.1;;;;;;;16.5;71.1;100440;;;;
2021/07/31 06:54:38;;;;;;;10.2;9.1;;;;;;;16.4;71.4;100430;;;;
2021/07/31 06:56:38;;;;;;;10.2;9.1;;;;;;;16.5;72.1;100440;;;;
2021/07/31 06:58:38;;;;;;;10.2;9.1;;;;;;;16.6;71.1;100430;;;;
2021/07/31 07:06:38;;;;;;;12.5;10.7;;;;;;;16.5;72.3;100440;;;;
2021/07/31 07:08:38;;;;;;;12.5;10.7;;;;;;;16.2;74.7;100440;;;;
2021/07/31 07:10:38;;;;;;;12.5;10.7;;;;;;;16.4;74.2;100440;;;;
2021/07/31 07:12:38;;;;;;;12.5;10.7;;;;;;;16.3;73.3;100440;;;;
2021/07/31 07:14:42;;;;;;;12.5;10.7;;;;;;;16.4;73.1;100440;;;;
2021/07/31 07:18:38;;;;;;;12.5;10.7;;;;;;;16.2;74.8;100450;;;;
2021/07/31 07:20:38;;;;;;;15.1;12.5;;;;;;;16.3;74.7;100450;;;;
2021/07/31 07:26:38;;;;;;;15.1;12.5;;;;;;;16.2;76.0;100460;;;;
2021/07/31 07:28:38;;;;;;;15.1;12.5;;;;;;;16.1;74.8;100470;;;;
2021/07/31 07:38:39;;;;;;;15.1;12.5;;;;;;;16.2;75.5;100470;;;;
2021/07/31 07:42:38;;;;;;;13.5;12.1;;;;;;;16.3;75.6;100480;;;;
2021/07/31 07:44:38;;;;;;;13.5;12.1;;;;;;;16.1;75.7;100470;;;;
2021/07/31 07:48:38;;;;;;;13.5;12.1;;;;;;;16.2;76.0;100480;;;;
2021/07/31 07:50:38;;;;;;;13.5;12.1;;;;;;;16.1;76.6;100480;;;;
2021/07/31 07:52:38;;;;;;;13.5;12.1;;;;;;;16.2;76.1;100490;;;;
2021/07/31 08:06:38;;;;;;;11.9;10.7;;;;;;;16.4;77.1;100480;;;;
2021/07/31 08:08:38;;;;;;;11.9;10.7;;;;;;;16.5;76.1;100480;;;;
2021/07/31 08:10:43;;;;;;;11.9;10.7;;;;;;;16.6;76.7;100480;;;;
2021/07/31 08:12:38;;;;;;;11.9;10.7;;;;;;;16.8;76.3;100480;;;;
2021/07/31 08:16:39;;;;;;;11.9;10.7;;;;;;;17.0;76.3;100490;;;;
2021/07/31 08:18:38;;;;;;;11.9;10.7;;;;;;;17.1;75.6;100480;;;;
2021/07/31 08:24:38;;;;;;;11.6;10.6;;;;;;;17.3;75.2;100480;;;;
2021/07/31 08:26:39;;;;;;;11.6;10.6;;;;;;;17.4;76.1;100480;;;;
2021/07/31 08:34:38;;;;;;;11.6;10.6;;;;;;;17.6;74.3;100480;;;;
2021/07/31 08:36:40;;;;;;;11.6;10.6;;;;;;;17.7;75.2;100480;;;;
2021/07/31 08:38:38;;;;;;;11.6;10.6;;;;;;;17.6;72.9;100480;;;;
2021/07/31 08:40:38;;;;;;;10.6;9.7;;;;;;;17.5;73.8;100490;;;;
2021/07/31 08:42:40;;;;;;;10.6;9.7;;;;;;;17.6;73.5;100480;;;;
2021/07/31 08:44:38;;;;;;;10.6;9.7;;;;;;;17.7;72.8;100480;;;;
2021/07/31 08:46:38;;;;;;;10.6;9.7;;;;;;;17.6;72.9;100490;;;;
2021/07/31 08:50:38;;;;;;;10.6;9.7;;;;;;;17.7;73.0;100490;;;;
2021/07/31 08:54:38;;;;;;;10.6;9.7;;;;;;;17.6;71.1;100480;;;;
2021/07/31 08:56:38;;;;;;;10.6;9.7;;;;;;;17.5;70.6;100490;;;;
2021/07/31 08:58:40;;;;;;;8.2;7.4;;;;;;;17.6;71.1;100500;;;;
2021/07/31 09:06:39;;;;;;;8.2;7.4;;;;;;;17.5;70.5;100510;;;;
2021/07/31 09:08:38;;;;;;;8.2;7.4;;;;;;;17.6;70.2;100510;;;;
2021/07/31 09:10:39;;;;;;;8.2;7.4;;;;;;;17.5;70.6;100510;;;;
2021/07/31 09:12:38;;;;;;;8.2;7.4;;;;;;;17.6;70.3;100510;;;;
2021/07/31 09:14:39;;;;;;;8.2;7.4;;;;;;;17.7;70.6;100520;;;;
2021/07/31 09:16:39;;;;;;;8.2;7.4;;;;;;;17.8;69.9;100520;;;;
2021/07/31 09:18:43;;;;;;;7.5;6.8;;;;;;;18.0;70.4;100520;;;;
2021/07/31 09:20:38;;;;;;;7.5;6.8;;;;;;;17.9;70.6;100520;;;;
2021/07/31 09:22:38;;;;;;;7.5;6.8;;;;;;;18.1;69.4;100520;;;;
2021/07/31 09:24:38;;;;;;;7.5;6.8;;;;;;;18.2;69.5;100520;;;;
2021/07/31 09:26:45;;;;;;;7.5;6.8;;;;;;;18.3;69.3;100520;;;;
2021/07/31 09:28:40;;;;;;;7.5;6.8;;;;;;;18.4;68.0;100520;;;;
2021/07/31 09:30:38;;;;;;;7.5;6.8;;;;;;;18.6;68.4;100520;;;;
2021/07/31 09:34:38;;;;;;;7.5;6.8;;;;;;;18.4;66.6;100530;;;;
2021/07/31 09:36:38;;;;;;;7.5;6.8;;;;;;;18.5;67.7;100530;;;;
2021/07/31 09:38:39;;;;;;;6.1;5.5;;;;;;;18.8;66.8;100530;;;;
2021/07/31 09:40:38;;;;;;;6.1;5.5;;;;;;;18.9;66.8;100530;;;;
2021/07/31 09:42:38;;;;;;;6.1;5.5;;;;;;;18.8;66.1;100530;;;;
2021/07/31 09:46:39;;;;;;;6.1;5.5;;;;;;;18.9;66.5;100530;;;;
2021/07/31 09:48:38;;;;;;;6.1;5.5;;;;;;;18.6;66.5;100530;;;;
2021/07/31 09:52:38;;;;;;;6.1;5.5;;;;;;;18.7;65.3;100530;;;;
2021/07/31 09:54:40;;;;;;;6.1;5.5;;;;;;;18.5;65.3;100530;;;;
2021/07/31 09:56:39;;;;;;;6.1;5.5;;;;;;;18.6;65.4;100540;;;;
2021/07/31 09:58:38;;;;;;;7.2;4.6;;;;;;;18.7;65.3;100540;;;;
2021/07/31 10:00:39;;;;;;;7.2;4.6;;;;;;;18.6;64.7;100550;;;;
2021/07/31 10:02:39;;;;;;;7.2;4.6;;;;;;;18.3;65.5;100550;;;;
2021/07/31 10:04:38;;;;;;;7.2;4.6;;;;;;;17.9;67.7;100560;;;;
2021/07/31 10:06:38;;;;;;;7.2;4.6;;;;;;;18.0;68.4;100560;;;;
2021/07/31 10:08:38;;;;;;;7.2;4.6;;;;;;;18.1;68.9;100550;;;;
2021/07/31 10:10:38;;;;;;;7.2;4.6;;;;;;;18.3;67.8;100550;;;;
2021/07/31 10:12:38;;;;;;;7.2;4.6;;;;;;;18.2;67.6;100560;;;;
2021/07/31 10:14:39;;;;;;;7.2;4.6;;;;;;;18.3;67.2;100560;;;;
2021/07/31 10:18:38;;;;;;;4.4;3.9;;;;;;;18.4;66.8;100570;;;;
2021/07/31 10:20:38;;;;;;;4.4;3.9;;;;;;;18.5;66.4;100560;;;;
2021/07/31 10:22:38;;;;;;;4.4;3.9;;;;;;;18.7;66.7;100570;;;;
2021/07/31 10:24:38;;;;;;;4.4;3.9;;;;;;;18.8;66.1;100570;;;;
2021/07/31 10:26:43;;;;;;;4.4;3.9;;;;;;;18.9;65.7;100570;;;;
2021/07/31 10:28:39;;;;;;;4.4;3.9;;;;;;;19.0;65.6;100570;;;;
2021/07/31 10:30:39;;;;;;;4.4;3.9;;;;;;;19.3;66.1;100570;;;;
2021/07/31 10:32:40;;;;;;;4.4;3.9;;;;;;;19.4;64.6;100570;;;;
2021/07/31 10:34:38;;;;;;;4.4;3.9;;;;;;;19.5;64.4;100570;;;;
2021/07/31 10:36:39;;;;;;;4.4;3.9;;;;;;;19.6;64.3;100580;;;;
2021/07/31 10:38:39;;;;;;;4.7;3.7;;;;;;;19.7;63.5;100570;;;;
2021/07/31 10:40:41;;;;;;;4.7;3.7;;;;;;;19.8;63.1;100570;;;;
2021/07/31 10:42:38;;;;;;;4.7;3.7;;;;;;;19.7;63.3;100580;;;;
2021/07/31 10:44:38;;;;;;;4.7;3.7;;;;;;;19.5;62.8;100580;;;;
2021/07/31 10:46:39;;;;;;;4.7;3.7;;;;;;;19.4;63.0;100590;;;;
2021/07/31 10:48:38;;;;;;;4.7;3.7;;;;;;;19.3;63.9;100590;;;;
2021/07/31 10:52:38;;;;;;;4.7;3.7;;;;;;;19.0;63.6;100600;;;;
2021/07/31 10:54:48;;;;;;;4.7;3.7;;;;;;;18.9;64.5;100600;;;;
2021/07/31 10:58:38;;;;;;;3.7;2.5;;;;;;;19.1;63.6;100600;;;;
2021/07/31 11:00:39;;;;;;;3.7;2.5;;;;;;;19.5;64.2;100600;;;;
2021/07/31 11:02:40;;;;;;;3.7;2.5;;;;;;;19.8;63.9;100610;;;;
2021/07/31 11:06:38;;;;;;;3.7;2.5;;;;;;;20.0;62.1;100610;;;;
2021/07/31 11:08:38;;;;;;;3.7;2.5;;;;;;;20.2;63.2;100600;;;;
2021/07/31 11:10:42;;;;;;;3.7;2.5;;;;;;;20.5;62.7;100600;;;;
2021/07/31 11:12:38;;;;;;;3.7;2.5;;;;;;;20.7;61.5;100600;;;;
2021/07/31 11:14:38;;;;;;;3.7;2.5;;;;;;;20.6;61.4;100610;;;;
2021/07/31 11:16:39;;;;;;;3.7;2.5;;;;;;;20.5;60.5;100610;;;;
2021/07/31 11:18:39;;;;;;;4.7;4.3;;;;;;;20.6;61.2;100610;;;;
2021/07/31 11:20:38;;;;;;;4.7;4.3;;;;;;;20.3;60.8;100620;;;;
2021/07/31 11:22:38;;;;;;;4.7;4.3;;;;;;;20.2;61.1;100620;;;;
2021/07/31 11:26:39;;;;;;;4.7;4.3;;;;;;;20.1;62.3;100630;;;;
2021/07/31 11:28:38;;;;;;;4.7;4.3;;;;;;;20.4;62.2;100630;;;;
2021/07/31 11:30:38;;;;;;;4.7;4.3;;;;;;;20.3;62.4;100620;;;;
2021/07/31 11:32:38;;;;;;;4.7;4.3;;;;;;;20.2;62.4;100620;;;;
2021/07/31 11:34:39;;;;;;;4.7;4.3;;;;;;;20.1;63.2;100630;;;;
2021/07/31 11:36:38;;;;;;;4.7;4.3;;;;;;;19.9;62.9;100630;;;;
2021/07/31 11:38:39;;;;;;;6.0;5.4;;;;;;;20.1;63.4;100630;;;;
2021/07/31 11:40:38;;;;;;;6.0;5.4;;;;;;;20.0;62.7;100630;;;;
2021/07/31 11:42:38;;;;;;;6.0;5.4;;;;;;;20.2;63.6;100630;;;;
2021/07/31 11:44:38;;;;;;;6.0;5.4;;;;;;;20.3;63.0;100630;;;;
2021/07/31 11:48:38;;;;;;;6.0;5.4;;;;;;;20.5;62.4;100630;;;;
2021/07/31 11:54:38;;;;;;;6.0;5.4;;;;;;;20.4;62.8;100630;;;;
2021/07/31 11:56:38;;;;;;;6.0;5.4;;;;;;;20.3;62.6;100630;;;;
2021/07/31 11:58:38;;;;;;;5.7;5.1;;;;;;;20.1;63.2;100630;;;;
2021/07/31 12:00:43;;;;;;;5.7;5.1;;;;;;;20.2;62.8;100630;;;;
2021/07/31 12:02:39;;;;;;;5.7;5.1;;;;;;;20.4;62.8;100630;;;;
2021/07/31 12:06:38;;;;;;;5.7;5.1;;;;;;;20.2;61.8;100630;;;;
2021/07/31 12:08:38;;;;;;;5.7;5.1;;;;;;;20.3;62.5;100640;;;;
2021/07/31 12:10:38;;;;;;;5.7;5.1;;;;;;;20.1;62.8;100640;;;;
2021/07/31 12:12:39;;;;;;;5.7;5.1;;;;;;;20.2;63.2;100650;;;;
2021/07/31 12:14:39;;;;;;;5.7;5.1;;;;;;;20.3;63.2;100640;;;;
2021/07/31 12:18:38;;;;;;;5.8;5.3;;;;;;;20.5;62.6;100650;;;;
2021/07/31 12:20:39;;;;;;;5.8;5.3;;;;;;;20.7;62.7;100650;;;;
2021/07/31 12:22:39;;;;;;;5.8;5.3;;;;;;;20.8;62.6;100650;;;;
2021/07/31 12:26:38;;;;;;;5.8;5.3;;;;;;;20.7;62.1;100640;;;;
2021/07/31 12:28:38;;;;;;;5.8;5.3;;;;;;;20.8;61.7;100640;;;;
2021/07/31 12:30:39;;;;;;;5.8;5.3;;;;;;;20.7;61.7;100640;;;;
2021/07/31 12:32:39;;;;;;;5.8;5.3;;;;;;;20.6;61.3;100640;;;;
2021/07/31 12:34:38;;;;;;;5.8;5.3;;;;;;;20.8;60.3;100640;;;;
2021/07/31 12:36:38;;;;;;;5.8;5.3;;;;;;;21.0;61.0;100640;;;;
2021/07/31 12:40:39;;;;;;;3.2;2.9;;;;;;;21.2;59.9;100650;;;;
2021/07/31 12:42:38;;;;;;;3.2;2.9;;;;;;;21.4;60.0;100650;;;;
2021/07/31 12:44:39;;;;;;;3.2;2.9;;;;;;;21.3;59.5;100650;;;;
2021/07/31 12:46:39;;;;;;;3.2;2.9;;;;;;;21.6;58.8;100660;;;;
2021/07/31 12:48:39;;;;;;;3.2;2.9;;;;;;;21.7;58.7;100660;;;;
2021/07/31 12:50:39;;;;;;;3.2;2.9;;;;;;;21.8;58.6;100660;;;;
2021/07/31 12:52:38;;;;;;;3.2;2.9;;;;;;;22.0;58.6;100660;;;;
2021/07/31 12:54:39;;;;;;;3.2;2.9;;;;;;;21.8;57.9;100660;;;;
2021/07/31 12:56:38;;;;;;;3.2;2.9;;;;;;;21.9;58.4;100660;;;;
2021/07/31 12:58:38;;;;;;;3.8;3.5;;;;;;;22.1;58.5;100660;;;;
2021/07/31 13:00:39;;;;;;;3.8;3.5;;;;;;;22.3;57.9;100660;;;;
2021/07/31 13:02:39;;;;;;;3.8;3.5;;;;;;;22.0;57.6;100660;;;;
2021/07/31 13:04:38;;;;;;;3.8;3.5;;;;;;;22.1;58.4;100660;;;;
2021/07/31 13:06:38;;;;;;;3.8;3.5;;;;;;;22.3;57.6;100660;;;;
2021/07/31 13:08:38;;;;;;;3.8;3.5;;;;;;;22.1;57.1;100660;;;;
2021/07/31 13:10:38;;;;;;;3.8;3.5;;;;;;;21.5;57.9;100660;;;;
2021/07/31 13:12:39;;;;;;;3.8;3.5;;;;;;;21.7;58.5;100670;;;;
2021/07/31 13:18:38;;;;;;;4.9;4.2;;;;;;;21.8;57.8;100680;;;;
2021/07/31 13:20:38;;;;;;;4.9;4.2;;;;;;;21.7;57.3;100670;;;;
2021/07/31 13:24:38;;;;;;;4.9;4.2;;;;;;;22.1;57.7;100660;;;;
2021/07/31 13:26:38;;;;;;;4.9;4.2;;;;;;;21.9;57.4;100660;;;;
2021/07/31 13:28:39;;;;;;;4.9;4.2;;;;;;;21.8;57.4;100670;;;;
2021/07/31 13:30:40;;;;;;;4.9;4.2;;;;;;;21.6;57.9;100680;;;;
2021/07/31 13:32:38;;;;;;;4.9;4.2;;;;;;;21.5;59.0;100680;;;;
2021/07/31 13:36:39;;;;;;;4.9;4.2;;;;;;;21.2;61.5;100680;;;;
2021/07/31 13:38:47;;;;;;;5.7;4.6;;;;;;;20.8;61.9;100680;;;;
2021/07/31 13:42:38;;;;;;;5.7;4.6;;;;;;;21.0;61.7;100680;;;;
2021/07/31 13:44:39;;;;;;;5.7;4.6;;;;;;;21.2;62.0;100680;;;;
2021/07/31 13:48:38;;;;;;;5.7;4.6;;;;;;;21.5;63.2;100680;;;;
2021/07/31 13:50:39;;;;;;;5.7;4.6;;;;;;;21.7;62.5;100690;;;;
2021/07/31 13:54:39;;;;;;;5.7;4.6;;;;;;;21.8;60.8;100690;;;;
2021/07/31 14:02:40;;;;;;;4.9;4.0;;;;;;;21.9;59.4;100690;;;;
2021/07/31 14:08:39;;;;;;;4.9;4.0;;;;;;;21.7;57.3;100690;;;;
2021/07/31 14:12:40;;;;;;;4.9;4.0;;;;;;;22.0;56.3;100680;;;;
2021/07/31 14:16:38;;;;;;;4.9;4.0;;;;;;;22.1;55.7;100690;;;;
2021/07/31 14:18:39;;;;;;;2.8;2.4;;;;;;;21.9;55.1;100680;;;;
2021/07/31 14:22:40;;;;;;;2.8;2.4;;;;;;;22.2;55.7;100680;;;;
2021/07/31 14:24:39;;;;;;;2.8;2.4;;;;;;;22.4;55.5;100680;;;;
2021/07/31 14:28:39;;;;;;;2.8;2.4;;;;;;;22.5;54.7;100680;;;;
2021/07/31 14:30:39;;;;;;;2.8;2.4;;;;;;;22.7;55.1;100680;;;;
2021/07/31 14:32:40;;;;;;;2.8;2.4;;;;;;;22.8;55.2;100680;;;;
2021/07/31 14:34:40;;;;;;;2.8;2.4;;;;;;;22.9;55.0;100680;;;;
2021/07/31 14:36:39;;;;;;;2.8;2.4;;;;;;;22.8;54.1;100680;;;;
2021/07/31 14:38:39;;;;;;;3.1;2.8;;;;;;;22.9;54.0;100680;;;;
2021/07/31 14:40:41;;;;;;;3.1;2.8;;;;;;;23.1;54.3;100670;;;;
2021/07/31 14:42:39;;;;;;;3.1;2.8;;;;;;;23.2;54.2;100670;;;;
2021/07/31 14:46:38;;;;;;;3.1;2.8;;;;;;;23.3;53.6;100670;;;;
2021/07/31 14:48:39;;;;;;;3.1;2.8;;;;;;;23.4;53.0;100670;;;;
2021/07/31 14:52:39;;;;;;;3.1;2.8;;;;;;;23.3;53.0;100670;;;;
2021/07/31 14:54:39;;;;;;;3.1;2.8;;;;;;;23.7;52.4;100680;;;;
2021/07/31 14:56:38;;;;;;;3.1;2.8;;;;;;;23.8;50.9;100670;;;;
2021/07/31 15:00:39;;;;;;;3.0;2.7;;;;;;;23.6;51.0;100670;;;;
2021/07/31 15:04:39;;;;;;;3.0;2.7;;;;;;;23.7;50.6;100680;;;;
2021/07/31 15:06:39;;;;;;;3.0;2.7;;;;;;;23.9;51.2;100680;;;;
2021/07/31 15:10:39;;;;;;;3.0;2.7;;;;;;;24.2;50.3;100680;;;;
2021/07/31 15:12:39;;;;;;;3.0;2.7;;;;;;;24.0;48.4;100670;;;;
2021/07/31 15:14:39;;;;;;;3.0;2.7;;;;;;;23.8;47.4;100670;;;;
2021/07/31 15:16:39;;;;;;;3.0;2.7;;;;;;;24.2;47.8;100670;;;;
2021/07/31 15:18:39;;;;;;;2.0;1.8;;;;;;;24.3;47.9;100670;;;;
2021/07/31 15:22:40;;;;;;;2.0;1.8;;;;;;;24.5;47.5;100670;;;;
2021/07/31 15:24:38;;;;;;;2.0;1.8;;;;;;;24.3;46.8;100670;;;;
2021/07/31 15:26:38;;;;;;;2.0;1.8;;;;;;;24.2;46.6;100680;;;;
2021/07/31 15:30:38;;;;;;;2.0;1.8;;;;;;;24.6;47.2;100680;;;;
2021/07/31 15:32:39;;;;;;;2.0;1.8;;;;;;;24.4;47.4;100670;;;;
2021/07/31 15:34:39;;;;;;;2.0;1.8;;;;;;;24.6;46.9;100680;;;;
2021/07/31 15:42:39;;;;;;;3.0;2.4;;;;;;;24.3;46.5;100690;;;;
2021/07/31 15:44:39;;;;;;;3.0;2.4;;;;;;;24.4;46.6;100680;;;;
2021/07/31 15:46:38;;;;;;;3.0;2.4;;;;;;;24.6;46.5;100680;;;;
2021/07/31 15:48:39;;;;;;;3.0;2.4;;;;;;;24.5;45.8;100690;;;;
2021/07/31 15:50:39;;;;;;;3.0;2.4;;;;;;;24.6;45.7;100680;;;;
2021/07/31 15:52:39;;;;;;;3.0;2.4;;;;;;;24.7;47.5;100690;;;;
2021/07/31 15:54:39;;;;;;;3.0;2.4;;;;;;;24.4;45.5;100680;;;;
2021/07/31 15:56:38;;;;;;;3.0;2.4;;;;;;;24.6;45.7;100680;;;;
2021/07/31 15:58:39;;;;;;;2.7;2.2;;;;;;;24.2;45.5;100680;;;;
2021/07/31 16:02:40;;;;;;;2.7;2.2;;;;;;;24.1;45.5;100690;;;;
2021/07/31 16:04:39;;;;;;;2.7;2.2;;;;;;;24.4;45.5;100670;;;;
2021/07/31 16:06:39;;;;;;;2.7;2.2;;;;;;;24.3;46.7;100680;;;;
2021/07/31 16:10:39;;;;;;;2.7;2.2;;;;;;;24.5;45.3;100690;;;;
2021/07/31 16:14:39;;;;;;;2.7;2.2;;;;;;;24.4;45.9;100680;;;;
2021/07/31 16:16:39;;;;;;;2.7;2.2;;;;;;;24.6;45.4;100680;;;;
2021/07/31 16:18:39;;;;;;;2.4;1.7;;;;;;;24.8;44.7;100680;;;;
2021/07/31 16:20:39;;;;;;;2.4;1.7;;;;;;;25.0;44.5;100670;;;;
2021/07/31 16:22:40;;;;;;;2.4;1.7;;;;;;;24.6;44.3;100680;;;;
2021/07/31 16:24:39;;;;;;;2.4;1.7;;;;;;;24.5;44.9;100680;;;;
2021/07/31 16:26:45;;;;;;;2.4;1.7;;;;;;;24.7;44.2;100670;;;;
2021/07/31 16:28:39;;;;;;;2.4;1.7;;;;;;;24.4;44.8;100680;;;;
2021/07/31 16:30:39;;;;;;;2.4;1.7;;;;;;;24.2;44.8;100670;;;;
2021/07/31 16:32:39;;;;;;;2.4;1.7;;;;;;;24.4;44.7;100680;;;;
2021/07/31 16:34:39;;;;;;;2.4;1.7;;;;;;;24.5;45.1;100670;;;;
2021/07/31 16:36:39;;;;;;;2.4;1.7;;;;;;;24.6;44.0;100670;;;;
2021/07/31 16:38:39;;;;;;;2.5;2.3;;;;;;;24.4;44.3;100680;;;;
2021/07/31 16:40:39;;;;;;;2.5;2.3;;;;;;;24.3;45.1;100680;;;;
2021/07/31 16:42:39;;;;;;;2.5;2.3;;;;;;;24.4;44.4;100670;;;;
2021/07/31 16:48:39;;;;;;;2.5;2.3;;;;;;;24.1;45.9;100680;;;;
2021/07/31 16:52:40;;;;;;;2.5;2.3;;;;;;;23.9;46.1;100680;;;;
2021/07/31 16:54:39;;;;;;;2.5;2.3;;;;;;;23.8;46.4;100680;;;;
2021/07/31 16:56:39;;;;;;;2.5;2.3;;;;;;;23.5;46.8;100680;;;;
2021/07/31 16:58:39;;;;;;;2.3;2.0;;;;;;;23.4;47.2;100680;;;;
2021/07/31 17:00:43;;;;;;;2.3;2.0;;;;;;;23.8;47.0;100680;;;;
2021/07/31 17:02:40;;;;;;;2.3;2.0;;;;;;;23.9;46.7;100670;;;;
2021/07/31 17:04:39;;;;;;;2.3;2.0;;;;;;;24.0;46.6;100680;;;;
2021/07/31 17:08:39;;;;;;;2.3;2.0;;;;;;;23.9;46.7;100680;;;;
2021/07/31 17:10:39;;;;;;;2.3;2.0;;;;;;;23.5;46.4;100670;;;;
2021/07/31 17:12:40;;;;;;;2.3;2.0;;;;;;;23.4;47.1;100680;;;;
2021/07/31 17:14:39;;;;;;;2.3;2.0;;;;;;;23.5;46.6;100680;;;;
2021/07/31 17:16:39;;;;;;;2.3;2.0;;;;;;;23.2;47.8;100680;;;;
2021/07/31 17:18:39;;;;;;;3.3;2.3;;;;;;;23.1;47.8;100670;;;;
2021/07/31 17:20:39;;;;;;;3.3;2.3;;;;;;;23.2;47.1;100670;;;;
2021/07/31 17:24:39;;;;;;;3.3;2.3;;;;;;;23.7;47.1;100680;;;;
2021/07/31 17:26:39;;;;;;;3.3;2.3;;;;;;;24.2;47.4;100680;;;;
2021/07/31 17:30:39;;;;;;;3.3;2.3;;;;;;;24.0;46.4;100690;;;;
2021/07/31 17:34:39;;;;;;;3.3;2.3;;;;;;;24.1;46.0;100690;;;;
2021/07/31 17:38:39;;;;;;;2.5;1.6;;;;;;;24.6;45.3;100690;;;;
2021/07/31 17:40:39;;;;;;;2.5;1.6;;;;;;;24.7;44.4;100700;;;;
2021/07/31 17:42:39;;;;;;;2.5;1.6;;;;;;;24.8;43.9;100690;;;;
2021/07/31 17:44:39;;;;;;;2.5;1.6;;;;;;;24.6;45.2;100690;;;;
2021/07/31 17:46:39;;;;;;;2.5;1.6;;;;;;;24.3;44.6;100700;;;;
2021/07/31 17:48:39;;;;;;;2.5;1.6;;;;;;;24.4;44.7;100700;;;;
2021/07/31 17:50:39;;;;;;;2.5;1.6;;;;;;;23.7;44.7;100700;;;;
2021/07/31 17:52:40;;;;;;;2.5;1.6;;;;;;;23.5;45.3;100700;;;;
2021/07/31 17:54:39;;;;;;;2.5;1.6;;;;;;;23.1;45.2;100700;;;;
2021/07/31 17:56:39;;;;;;;2.5;1.6;;;;;;;22.7;47.3;100700;;;;
2021/07/31 17:58:39;;;;;;;2.3;1.4;;;;;;;22.5;47.1;100710;;;;
2021/07/31 18:00:39;;;;;;;2.3;1.4;;;;;;;22.1;48.2;100710;;;;
2021/07/31 18:02:39;;;;;;;2.3;1.4;;;;;;;22.2;48.2;100710;;;;
2021/07/31 18:04:39;;;;;;;2.3;1.4;;;;;;;22.3;47.5;100710;;;;
2021/07/31 18:06:39;;;;;;;2.3;1.4;;;;;;;22.1;47.6;100710;;;;
2021/07/31 18:10:39;;;;;;;2.3;1.4;;;;;;;22.0;48.3;100710;;;;
2021/07/31 18:12:40;;;;;;;2.3;1.4;;;;;;;21.7;48.3;100710;;;;
2021/07/31 18:20:39;;;;;;;1.7;1.2;;;;;;;21.5;49.2;100720;;;;
2021/07/31 18:24:39;;;;;;;1.7;1.2;;;;;;;21.4;49.1;100710;;;;
2021/07/31 18:30:39;;;;;;;1.7;1.2;;;;;;;21.5;50.1;100710;;;;
2021/07/31 18:34:39;;;;;;;1.7;1.2;;;;;;;21.2;49.8;100710;;;;
2021/07/31 18:36:39;;;;;;;1.7;1.2;;;;;;;21.4;50.0;100710;;;;
2021/07/31 18:38:39;;;;;;;2.6;1.4;;;;;;;21.2;49.8;100710;;;;
2021/07/31 18:40:39;;;;;;;2.6;1.4;;;;;;;21.1;49.5;100710;;;;
2021/07/31 18:44:39;;;;;;;2.6;1.4;;;;;;;20.9;50.0;100710;;;;
2021/07/31 18:48:39;;;;;;;2.6;1.4;;;;;;;21.0;49.7;100710;;;;
2021/07/31 18:50:39;;;;;;;2.6;1.4;;;;;;;20.9;49.6;100710;;;;
2021/07/31 18:52:39;;;;;;;2.6;1.4;;;;;;;20.7;50.0;100710;;;;
2021/07/31 18:56:39;;;;;;;2.6;1.4;;;;;;;20.6;50.3;100710;;;;
2021/07/31 18:58:39;;;;;;;2.0;1.4;;;;;;;20.7;50.1;100710;;;;
2021/07/31 19:04:39;;;;;;;2.0;1.4;;;;;;;20.6;50.3;100710;;;;